sensor_id;sensor_type;location;lat;lon;timestamp;P1;durP1;ratioP1;P2;durP2;ratioP2
28007;SDS011;15333;50.010;20.020;2023-03-11T00:00:35;8.57;;;4.78;;
28007;SDS011;15333;50.010;20.020;2023-03-11T00:03:58;8.80;;;5.28;;
28007;SDS011;15333;50.010;20.020;2023-03-11T00:07:00;6.72;;;4.10;;
28007;SDS011;15333;50.010;20.020;2023-03-11T00:10:01;11.02;;;5.55;;
28007;SDS011;15333;50.010;20.020;2023-03-11T00:13:02;11.07;;;5.60;;
28007;SDS011;15333;50.010;20.020;2023-03-11T00:16:04;10.85;;;5.57;;
28007;SDS011;15333;50.010;20.020;2023-03-11T00:19:05;10.65;;;5.38;;
28007;SDS011;15333;50.010;20.020;2023-03-11T00:22:06;9.65;;;5.22;;
28007;SDS011;15333;50.010;20.020;2023-03-11T00:25:08;11.25;;;5.82;;
28007;SDS011;15333;50.010;20.020;2023-03-11T00:28:11;6.82;;;4.47;;
28007;SDS011;15333;50.010;20.020;2023-03-11T00:31:14;9.27;;;5.05;;
28007;SDS011;15333;50.010;20.020;2023-03-11T00:34:15;10.27;;;5.40;;
28007;SDS011;15333;50.010;20.020;2023-03-11T00:37:16;9.20;;;5.30;;
28007;SDS011;15333;50.010;20.020;2023-03-11T00:40:18;9.30;;;5.63;;
28007;SDS011;15333;50.010;20.020;2023-03-11T00:43:20;11.18;;;5.35;;
28007;SDS011;15333;50.010;20.020;2023-03-11T00:46:21;7.80;;;5.05;;
28007;SDS011;15333;50.010;20.020;2023-03-11T00:49:22;10.68;;;5.65;;
28007;SDS011;15333;50.010;20.020;2023-03-11T00:52:23;9.40;;;5.95;;
28007;SDS011;15333;50.010;20.020;2023-03-11T00:55:26;11.55;;;5.72;;
28007;SDS011;15333;50.010;20.020;2023-03-11T00:58:29;7.43;;;5.25;;
28007;SDS011;15333;50.010;20.020;2023-03-11T01:01:32;10.40;;;5.72;;
28007;SDS011;15333;50.010;20.020;2023-03-11T01:04:33;13.68;;;5.30;;
28007;SDS011;15333;50.010;20.020;2023-03-11T01:07:34;9.05;;;5.50;;
28007;SDS011;15333;50.010;20.020;2023-03-11T01:10:37;10.95;;;5.22;;
28007;SDS011;15333;50.010;20.020;2023-03-11T01:13:38;9.57;;;5.55;;
28007;SDS011;15333;50.010;20.020;2023-03-11T01:16:39;9.85;;;6.13;;
28007;SDS011;15333;50.010;20.020;2023-03-11T01:19:40;9.68;;;5.40;;
28007;SDS011;15333;50.010;20.020;2023-03-11T01:22:41;9.18;;;5.30;;
28007;SDS011;15333;50.010;20.020;2023-03-11T01:25:42;9.45;;;5.53;;
28007;SDS011;15333;50.010;20.020;2023-03-11T01:28:44;8.05;;;5.55;;
28007;SDS011;15333;50.010;20.020;2023-03-11T01:31:44;10.55;;;5.28;;
28007;SDS011;15333;50.010;20.020;2023-03-11T01:34:45;10.45;;;5.43;;
28007;SDS011;15333;50.010;20.020;2023-03-11T01:37:46;10.10;;;5.78;;
28007;SDS011;15333;50.010;20.020;2023-03-11T01:40:48;8.32;;;5.50;;
28007;SDS011;15333;50.010;20.020;2023-03-11T01:43:52;10.10;;;5.40;;
28007;SDS011;15333;50.010;20.020;2023-03-11T01:50:08;7.95;;;4.13;;
28007;SDS011;15333;50.010;20.020;2023-03-11T01:53:13;5.65;;;3.65;;
28007;SDS011;15333;50.010;20.020;2023-03-11T01:56:16;5.65;;;3.70;;
28007;SDS011;15333;50.010;20.020;2023-03-11T01:59:21;6.45;;;3.65;;
28007;SDS011;15333;50.010;20.020;2023-03-11T02:02:36;3.45;;;2.40;;
28007;SDS011;15333;50.010;20.020;2023-03-11T02:05:43;3.83;;;2.50;;
28007;SDS011;15333;50.010;20.020;2023-03-11T02:08:44;4.03;;;2.47;;
28007;SDS011;15333;50.010;20.020;2023-03-11T02:11:48;3.22;;;1.90;;
28007;SDS011;15333;50.010;20.020;2023-03-11T02:14:50;3.10;;;2.30;;
28007;SDS011;15333;50.010;20.020;2023-03-11T02:17:54;3.45;;;2.40;;
28007;SDS011;15333;50.010;20.020;2023-03-11T02:21:05;3.30;;;1.92;;
28007;SDS011;15333;50.010;20.020;2023-03-11T02:24:38;2.10;;;1.45;;
28007;SDS011;15333;50.010;20.020;2023-03-11T02:27:46;1.77;;;1.38;;
28007;SDS011;15333;50.010;20.020;2023-03-11T02:30:50;1.25;;;0.82;;
28007;SDS011;15333;50.010;20.020;2023-03-11T02:33:53;2.55;;;1.10;;
28007;SDS011;15333;50.010;20.020;2023-03-11T02:36:56;1.20;;;1.00;;
28007;SDS011;15333;50.010;20.020;2023-03-11T02:40:19;1.10;;;0.82;;
28007;SDS011;15333;50.010;20.020;2023-03-11T02:43:35;1.05;;;0.80;;
28007;SDS011;15333;50.010;20.020;2023-03-11T02:46:41;1.40;;;1.02;;
28007;SDS011;15333;50.010;20.020;2023-03-11T02:49:44;1.50;;;0.85;;
28007;SDS011;15333;50.010;20.020;2023-03-11T02:52:47;2.38;;;1.13;;
28007;SDS011;15333;50.010;20.020;2023-03-11T02:55:49;1.73;;;1.20;;
28007;SDS011;15333;50.010;20.020;2023-03-11T02:58:50;1.15;;;1.00;;
28007;SDS011;15333;50.010;20.020;2023-03-11T03:01:51;1.83;;;1.00;;
28007;SDS011;15333;50.010;20.020;2023-03-11T03:04:52;2.88;;;1.17;;
28007;SDS011;15333;50.010;20.020;2023-03-11T03:07:53;1.10;;;0.82;;
28007;SDS011;15333;50.010;20.020;2023-03-11T03:10:54;1.38;;;0.90;;
28007;SDS011;15333;50.010;20.020;2023-03-11T03:13:55;1.40;;;0.80;;
28007;SDS011;15333;50.010;20.020;2023-03-11T03:16:57;1.08;;;0.60;;
28007;SDS011;15333;50.010;20.020;2023-03-11T03:19:58;0.40;;;0.40;;
28007;SDS011;15333;50.010;20.020;2023-03-11T03:22:59;0.55;;;0.50;;
28007;SDS011;15333;50.010;20.020;2023-03-11T03:26:04;0.77;;;0.50;;
28007;SDS011;15333;50.010;20.020;2023-03-11T03:29:09;2.72;;;0.60;;
28007;SDS011;15333;50.010;20.020;2023-03-11T03:32:10;0.80;;;0.50;;
28007;SDS011;15333;50.010;20.020;2023-03-11T03:35:11;2.53;;;0.70;;
28007;SDS011;15333;50.010;20.020;2023-03-11T03:38:36;2.05;;;0.70;;
28007;SDS011;15333;50.010;20.020;2023-03-11T03:41:37;1.33;;;0.80;;
28007;SDS011;15333;50.010;20.020;2023-03-11T03:44:40;0.90;;;0.60;;
28007;SDS011;15333;50.010;20.020;2023-03-11T03:47:40;1.65;;;0.95;;
28007;SDS011;15333;50.010;20.020;2023-03-11T03:50:42;1.13;;;0.60;;
28007;SDS011;15333;50.010;20.020;2023-03-11T03:53:46;1.33;;;0.70;;
28007;SDS011;15333;50.010;20.020;2023-03-11T03:56:48;1.92;;;1.02;;
28007;SDS011;15333;50.010;20.020;2023-03-11T03:59:49;1.63;;;0.98;;
28007;SDS011;15333;50.010;20.020;2023-03-11T04:02:50;0.98;;;0.68;;
28007;SDS011;15333;50.010;20.020;2023-03-11T04:06:09;1.48;;;0.80;;
28007;SDS011;15333;50.010;20.020;2023-03-11T04:09:27;1.13;;;1.02;;
28007;SDS011;15333;50.010;20.020;2023-03-11T04:12:28;1.05;;;0.90;;
28007;SDS011;15333;50.010;20.020;2023-03-11T04:15:30;4.20;;;1.05;;
28007;SDS011;15333;50.010;20.020;2023-03-11T04:18:30;1.33;;;0.80;;
28007;SDS011;15333;50.010;20.020;2023-03-11T04:21:32;1.92;;;1.00;;
28007;SDS011;15333;50.010;20.020;2023-03-11T04:24:33;2.17;;;1.20;;
28007;SDS011;15333;50.010;20.020;2023-03-11T04:27:35;2.50;;;1.10;;
28007;SDS011;15333;50.010;20.020;2023-03-11T04:30:38;2.90;;;1.17;;
28007;SDS011;15333;50.010;20.020;2023-03-11T04:33:40;3.30;;;1.40;;
28007;SDS011;15333;50.010;20.020;2023-03-11T04:36:43;9.32;;;5.05;;
28007;SDS011;15333;50.010;20.020;2023-03-11T04:39:46;2.17;;;1.27;;
28007;SDS011;15333;50.010;20.020;2023-03-11T04:42:47;2.35;;;1.42;;
28007;SDS011;15333;50.010;20.020;2023-03-11T04:45:49;2.63;;;1.40;;
28007;SDS011;15333;50.010;20.020;2023-03-11T04:48:49;1.48;;;1.00;;
28007;SDS011;15333;50.010;20.020;2023-03-11T04:51:51;1.40;;;1.17;;
28007;SDS011;15333;50.010;20.020;2023-03-11T04:54:55;1.17;;;1.00;;
28007;SDS011;15333;50.010;20.020;2023-03-11T04:57:57;3.67;;;1.20;;
28007;SDS011;15333;50.010;20.020;2023-03-11T05:00:58;3.33;;;1.42;;
28007;SDS011;15333;50.010;20.020;2023-03-11T05:03:59;2.90;;;1.25;;
28007;SDS011;15333;50.010;20.020;2023-03-11T05:07:00;5.47;;;1.80;;
28007;SDS011;15333;50.010;20.020;2023-03-11T05:10:02;2.88;;;1.92;;
28007;SDS011;15333;50.010;20.020;2023-03-11T05:13:05;3.42;;;2.00;;
28007;SDS011;15333;50.010;20.020;2023-03-11T05:16:10;2.50;;;2.10;;
28007;SDS011;15333;50.010;20.020;2023-03-11T05:19:12;3.35;;;1.90;;
28007;SDS011;15333;50.010;20.020;2023-03-11T05:22:32;3.75;;;1.92;;
28007;SDS011;15333;50.010;20.020;2023-03-11T05:25:34;3.20;;;1.83;;
28007;SDS011;15333;50.010;20.020;2023-03-11T05:28:35;4.90;;;2.38;;
28007;SDS011;15333;50.010;20.020;2023-03-11T05:31:37;3.58;;;2.45;;
28007;SDS011;15333;50.010;20.020;2023-03-11T05:34:38;4.20;;;2.28;;
28007;SDS011;15333;50.010;20.020;2023-03-11T05:37:40;3.67;;;2.25;;
28007;SDS011;15333;50.010;20.020;2023-03-11T05:40:41;4.68;;;2.30;;
28007;SDS011;15333;50.010;20.020;2023-03-11T05:43:42;2.47;;;1.77;;
28007;SDS011;15333;50.010;20.020;2023-03-11T05:46:43;2.03;;;1.83;;
28007;SDS011;15333;50.010;20.020;2023-03-11T05:49:45;1.80;;;1.30;;
28007;SDS011;15333;50.010;20.020;2023-03-11T05:52:50;1.33;;;1.23;;
28007;SDS011;15333;50.010;20.020;2023-03-11T05:55:55;1.67;;;1.48;;
28007;SDS011;15333;50.010;20.020;2023-03-11T05:58:58;3.35;;;1.50;;
28007;SDS011;15333;50.010;20.020;2023-03-11T06:02:02;3.00;;;1.60;;
28007;SDS011;15333;50.010;20.020;2023-03-11T06:05:04;2.22;;;1.85;;
28007;SDS011;15333;50.010;20.020;2023-03-11T06:08:06;3.88;;;1.90;;
28007;SDS011;15333;50.010;20.020;2023-03-11T06:11:08;2.35;;;1.98;;
28007;SDS011;15333;50.010;20.020;2023-03-11T06:14:12;1.80;;;1.70;;
28007;SDS011;15333;50.010;20.020;2023-03-11T06:17:16;1.63;;;1.00;;
28007;SDS011;15333;50.010;20.020;2023-03-11T06:20:17;3.83;;;1.67;;
28007;SDS011;15333;50.010;20.020;2023-03-11T06:23:19;2.80;;;1.63;;
28007;SDS011;15333;50.010;20.020;2023-03-11T06:26:20;2.25;;;1.80;;
28007;SDS011;15333;50.010;20.020;2023-03-11T06:29:22;1.65;;;1.50;;
28007;SDS011;15333;50.010;20.020;2023-03-11T06:32:26;1.77;;;1.50;;
28007;SDS011;15333;50.010;20.020;2023-03-11T06:35:29;3.75;;;1.70;;
28007;SDS011;15333;50.010;20.020;2023-03-11T06:38:30;1.85;;;1.67;;
28007;SDS011;15333;50.010;20.020;2023-03-11T06:41:33;2.25;;;1.73;;
28007;SDS011;15333;50.010;20.020;2023-03-11T06:44:35;2.25;;;1.75;;
28007;SDS011;15333;50.010;20.020;2023-03-11T06:47:36;2.53;;;1.80;;
28007;SDS011;15333;50.010;20.020;2023-03-11T06:50:38;1.98;;;1.70;;
28007;SDS011;15333;50.010;20.020;2023-03-11T06:53:39;2.72;;;1.75;;
28007;SDS011;15333;50.010;20.020;2023-03-11T06:56:41;1.63;;;1.52;;
28007;SDS011;15333;50.010;20.020;2023-03-11T06:59:43;2.22;;;1.58;;
28007;SDS011;15333;50.010;20.020;2023-03-11T07:02:46;4.00;;;2.03;;
28007;SDS011;15333;50.010;20.020;2023-03-11T07:05:49;3.10;;;1.98;;
28007;SDS011;15333;50.010;20.020;2023-03-11T07:08:51;1.27;;;1.08;;
28007;SDS011;15333;50.010;20.020;2023-03-11T07:11:54;2.40;;;2.00;;
28007;SDS011;15333;50.010;20.020;2023-03-11T07:15:04;2.55;;;2.30;;
28007;SDS011;15333;50.010;20.020;2023-03-11T07:18:08;9.27;;;2.38;;
28007;SDS011;15333;50.010;20.020;2023-03-11T07:21:10;2.88;;;2.38;;
28007;SDS011;15333;50.010;20.020;2023-03-11T07:24:13;3.72;;;2.50;;
28007;SDS011;15333;50.010;20.020;2023-03-11T07:27:14;2.88;;;2.30;;
28007;SDS011;15333;50.010;20.020;2023-03-11T07:30:16;4.85;;;2.92;;
28007;SDS011;15333;50.010;20.020;2023-03-11T07:33:17;4.50;;;3.03;;
28007;SDS011;15333;50.010;20.020;2023-03-11T07:36:22;4.38;;;2.90;;
28007;SDS011;15333;50.010;20.020;2023-03-11T07:39:24;4.40;;;2.90;;
28007;SDS011;15333;50.010;20.020;2023-03-11T07:42:25;3.40;;;2.38;;
28007;SDS011;15333;50.010;20.020;2023-03-11T07:45:27;3.47;;;2.83;;
28007;SDS011;15333;50.010;20.020;2023-03-11T07:48:29;7.32;;;3.05;;
28007;SDS011;15333;50.010;20.020;2023-03-11T07:51:30;3.72;;;2.72;;
28007;SDS011;15333;50.010;20.020;2023-03-11T07:54:34;4.63;;;2.50;;
28007;SDS011;15333;50.010;20.020;2023-03-11T07:57:34;3.05;;;2.53;;
28007;SDS011;15333;50.010;20.020;2023-03-11T08:00:35;2.38;;;1.90;;
28007;SDS011;15333;50.010;20.020;2023-03-11T08:03:37;2.13;;;1.92;;
28007;SDS011;15333;50.010;20.020;2023-03-11T08:06:39;2.08;;;1.67;;
28007;SDS011;15333;50.010;20.020;2023-03-11T08:09:42;2.53;;;1.27;;
28007;SDS011;15333;50.010;20.020;2023-03-11T08:12:43;3.05;;;1.60;;
28007;SDS011;15333;50.010;20.020;2023-03-11T08:15:44;2.40;;;1.85;;
28007;SDS011;15333;50.010;20.020;2023-03-11T08:18:45;2.63;;;2.40;;
28007;SDS011;15333;50.010;20.020;2023-03-11T08:21:47;2.85;;;2.42;;
28007;SDS011;15333;50.010;20.020;2023-03-11T08:24:51;3.60;;;3.10;;
28007;SDS011;15333;50.010;20.020;2023-03-11T08:27:52;5.78;;;4.70;;
28007;SDS011;15333;50.010;20.020;2023-03-11T08:30:53;4.57;;;3.83;;
28007;SDS011;15333;50.010;20.020;2023-03-11T08:34:05;5.80;;;4.13;;
28007;SDS011;15333;50.010;20.020;2023-03-11T08:37:08;5.53;;;4.60;;
28007;SDS011;15333;50.010;20.020;2023-03-11T08:40:09;4.93;;;3.63;;
28007;SDS011;15333;50.010;20.020;2023-03-11T08:43:11;4.68;;;3.60;;
28007;SDS011;15333;50.010;20.020;2023-03-11T08:46:14;7.32;;;4.47;;
28007;SDS011;15333;50.010;20.020;2023-03-11T08:49:22;6.25;;;3.83;;
28007;SDS011;15333;50.010;20.020;2023-03-11T08:52:23;4.63;;;3.38;;
28007;SDS011;15333;50.010;20.020;2023-03-11T08:55:24;5.43;;;3.45;;
28007;SDS011;15333;50.010;20.020;2023-03-11T08:58:27;4.70;;;3.38;;
28007;SDS011;15333;50.010;20.020;2023-03-11T09:01:29;6.10;;;3.58;;
28007;SDS011;15333;50.010;20.020;2023-03-11T09:04:30;4.15;;;3.10;;
28007;SDS011;15333;50.010;20.020;2023-03-11T09:07:32;4.63;;;3.40;;
28007;SDS011;15333;50.010;20.020;2023-03-11T09:10:32;3.97;;;3.22;;
28007;SDS011;15333;50.010;20.020;2023-03-11T09:13:33;4.25;;;3.47;;
28007;SDS011;15333;50.010;20.020;2023-03-11T09:16:35;6.22;;;3.67;;
28007;SDS011;15333;50.010;20.020;2023-03-11T09:19:36;6.72;;;3.22;;
28007;SDS011;15333;50.010;20.020;2023-03-11T09:22:37;4.75;;;3.53;;
28007;SDS011;15333;50.010;20.020;2023-03-11T09:25:38;5.80;;;3.83;;
28007;SDS011;15333;50.010;20.020;2023-03-11T09:28:40;7.15;;;4.32;;
28007;SDS011;15333;50.010;20.020;2023-03-11T09:31:41;7.80;;;3.85;;
28007;SDS011;15333;50.010;20.020;2023-03-11T09:34:42;6.60;;;4.53;;
28007;SDS011;15333;50.010;20.020;2023-03-11T09:37:43;6.95;;;4.82;;
28007;SDS011;15333;50.010;20.020;2023-03-11T09:40:53;6.50;;;4.55;;
28007;SDS011;15333;50.010;20.020;2023-03-11T09:50:38;6.88;;;4.95;;
28007;SDS011;15333;50.010;20.020;2023-03-11T09:53:54;4.88;;;3.53;;
28007;SDS011;15333;50.010;20.020;2023-03-11T09:57:02;6.78;;;4.45;;
28007;SDS011;15333;50.010;20.020;2023-03-11T10:00:05;8.52;;;6.68;;
28007;SDS011;15333;50.010;20.020;2023-03-11T10:06:43;8.90;;;5.90;;
28007;SDS011;15333;50.010;20.020;2023-03-11T10:16:28;9.68;;;5.53;;
28007;SDS011;15333;50.010;20.020;2023-03-11T10:19:57;8.77;;;6.43;;
28007;SDS011;15333;50.010;20.020;2023-03-11T10:29:26;9.35;;;5.60;;
28007;SDS011;15333;50.010;20.020;2023-03-11T10:32:40;7.57;;;5.20;;
28007;SDS011;15333;50.010;20.020;2023-03-11T10:35:47;7.25;;;4.85;;
28007;SDS011;15333;50.010;20.020;2023-03-11T10:38:53;7.07;;;5.20;;
28007;SDS011;15333;50.010;20.020;2023-03-11T10:42:02;10.02;;;6.30;;
28007;SDS011;15333;50.010;20.020;2023-03-11T10:45:09;9.17;;;6.33;;
28007;SDS011;15333;50.010;20.020;2023-03-11T10:48:17;7.82;;;4.75;;
28007;SDS011;15333;50.010;20.020;2023-03-11T10:51:23;8.25;;;4.53;;
28007;SDS011;15333;50.010;20.020;2023-03-11T10:54:28;8.68;;;6.70;;
28007;SDS011;15333;50.010;20.020;2023-03-11T10:57:36;7.82;;;5.53;;
28007;SDS011;15333;50.010;20.020;2023-03-11T11:00:38;9.10;;;6.20;;
28007;SDS011;15333;50.010;20.020;2023-03-11T11:03:46;10.27;;;6.15;;
28007;SDS011;15333;50.010;20.020;2023-03-11T11:06:49;11.40;;;7.50;;
28007;SDS011;15333;50.010;20.020;2023-03-11T11:10:10;10.02;;;6.22;;
28007;SDS011;15333;50.010;20.020;2023-03-11T11:19:16;11.88;;;7.78;;
28007;SDS011;15333;50.010;20.020;2023-03-11T11:22:18;14.52;;;7.18;;
28007;SDS011;15333;50.010;20.020;2023-03-11T11:28:40;11.90;;;8.48;;
28007;SDS011;15333;50.010;20.020;2023-03-11T11:31:44;12.00;;;7.78;;
28007;SDS011;15333;50.010;20.020;2023-03-11T11:34:55;13.85;;;8.93;;
28007;SDS011;15333;50.010;20.020;2023-03-11T11:38:00;14.85;;;9.40;;
28007;SDS011;15333;50.010;20.020;2023-03-11T11:41:03;11.68;;;6.95;;
28007;SDS011;15333;50.010;20.020;2023-03-11T11:44:08;22.23;;;13.18;;
28007;SDS011;15333;50.010;20.020;2023-03-11T11:47:23;16.65;;;8.85;;
28007;SDS011;15333;50.010;20.020;2023-03-11T11:50:35;18.00;;;11.15;;
28007;SDS011;15333;50.010;20.020;2023-03-11T11:56:43;19.38;;;12.60;;
28007;SDS011;15333;50.010;20.020;2023-03-11T11:59:44;19.90;;;10.23;;
28007;SDS011;15333;50.010;20.020;2023-03-11T12:12:31;22.98;;;13.75;;
28007;SDS011;15333;50.010;20.020;2023-03-11T12:15:56;17.33;;;10.63;;
28007;SDS011;15333;50.010;20.020;2023-03-11T12:19:14;16.85;;;10.68;;
28007;SDS011;15333;50.010;20.020;2023-03-11T12:22:21;21.58;;;13.48;;
28007;SDS011;15333;50.010;20.020;2023-03-11T12:32:55;20.73;;;12.70;;
28007;SDS011;15333;50.010;20.020;2023-03-11T12:35:39;16.50;;;11.23;;
28007;SDS011;15333;50.010;20.020;2023-03-11T12:38:49;16.55;;;10.85;;
28007;SDS011;15333;50.010;20.020;2023-03-11T12:51:59;14.75;;;8.65;;
28007;SDS011;15333;50.010;20.020;2023-03-11T12:58:17;12.43;;;7.72;;
28007;SDS011;15333;50.010;20.020;2023-03-11T13:01:45;13.95;;;8.43;;
28007;SDS011;15333;50.010;20.020;2023-03-11T13:11:48;10.50;;;6.80;;
28007;SDS011;15333;50.010;20.020;2023-03-11T13:15:24;10.45;;;6.35;;
28007;SDS011;15333;50.010;20.020;2023-03-11T13:18:21;11.77;;;6.18;;
28007;SDS011;15333;50.010;20.020;2023-03-11T13:27:33;18.42;;;6.18;;
28007;SDS011;15333;50.010;20.020;2023-03-11T13:30:43;11.30;;;6.95;;
28007;SDS011;15333;50.010;20.020;2023-03-11T13:34:13;12.43;;;7.85;;
28007;SDS011;15333;50.010;20.020;2023-03-11T13:40:49;16.35;;;9.45;;
28007;SDS011;15333;50.010;20.020;2023-03-11T13:43:51;15.77;;;9.57;;
28007;SDS011;15333;50.010;20.020;2023-03-11T13:47:14;16.42;;;9.43;;
28007;SDS011;15333;50.010;20.020;2023-03-11T13:50:23;19.38;;;10.90;;
28007;SDS011;15333;50.010;20.020;2023-03-11T13:53:38;20.05;;;11.63;;
28007;SDS011;15333;50.010;20.020;2023-03-11T13:56:44;17.10;;;9.55;;
28007;SDS011;15333;50.010;20.020;2023-03-11T13:59:51;17.95;;;11.57;;
28007;SDS011;15333;50.010;20.020;2023-03-11T14:06:04;15.57;;;10.25;;
28007;SDS011;15333;50.010;20.020;2023-03-11T14:09:14;15.20;;;9.52;;
28007;SDS011;15333;50.010;20.020;2023-03-11T14:12:19;15.55;;;9.25;;
28007;SDS011;15333;50.010;20.020;2023-03-11T14:15:21;15.38;;;9.73;;
28007;SDS011;15333;50.010;20.020;2023-03-11T14:18:25;13.50;;;8.45;;
28007;SDS011;15333;50.010;20.020;2023-03-11T14:21:27;12.55;;;8.02;;
28007;SDS011;15333;50.010;20.020;2023-03-11T14:24:28;14.60;;;7.00;;
28007;SDS011;15333;50.010;20.020;2023-03-11T14:27:29;12.43;;;8.25;;
28007;SDS011;15333;50.010;20.020;2023-03-11T14:30:31;11.07;;;6.50;;
28007;SDS011;15333;50.010;20.020;2023-03-11T14:33:33;15.52;;;6.63;;
28007;SDS011;15333;50.010;20.020;2023-03-11T14:39:53;11.00;;;6.57;;
28007;SDS011;15333;50.010;20.020;2023-03-11T14:42:55;11.55;;;6.40;;
28007;SDS011;15333;50.010;20.020;2023-03-11T14:46:07;13.60;;;7.68;;
28007;SDS011;15333;50.010;20.020;2023-03-11T14:49:15;10.77;;;6.15;;
28007;SDS011;15333;50.010;20.020;2023-03-11T14:52:31;11.43;;;6.68;;
28007;SDS011;15333;50.010;20.020;2023-03-11T14:55:38;9.27;;;5.80;;
28007;SDS011;15333;50.010;20.020;2023-03-11T14:58:56;11.93;;;6.22;;
28007;SDS011;15333;50.010;20.020;2023-03-11T15:05:36;8.23;;;5.15;;
28007;SDS011;15333;50.010;20.020;2023-03-11T15:08:45;8.90;;;5.18;;
28007;SDS011;15333;50.010;20.020;2023-03-11T15:11:53;9.95;;;5.68;;
28007;SDS011;15333;50.010;20.020;2023-03-11T15:14:57;11.57;;;6.35;;
28007;SDS011;15333;50.010;20.020;2023-03-11T15:17:58;11.55;;;6.68;;
28007;SDS011;15333;50.010;20.020;2023-03-11T15:21:22;12.07;;;6.25;;
28007;SDS011;15333;50.010;20.020;2023-03-11T15:24:23;11.35;;;6.65;;
28007;SDS011;15333;50.010;20.020;2023-03-11T15:27:30;14.45;;;6.78;;
28007;SDS011;15333;50.010;20.020;2023-03-11T15:30:33;12.48;;;7.40;;
28007;SDS011;15333;50.010;20.020;2023-03-11T15:33:34;13.02;;;7.18;;
28007;SDS011;15333;50.010;20.020;2023-03-11T15:39:48;13.95;;;8.15;;
28007;SDS011;15333;50.010;20.020;2023-03-11T15:46:14;12.75;;;6.88;;
28007;SDS011;15333;50.010;20.020;2023-03-11T15:49:15;19.27;;;9.43;;
28007;SDS011;15333;50.010;20.020;2023-03-11T15:52:18;19.70;;;10.70;;
28007;SDS011;15333;50.010;20.020;2023-03-11T15:55:19;21.35;;;11.40;;
28007;SDS011;15333;50.010;20.020;2023-03-11T15:58:22;24.00;;;13.90;;
28007;SDS011;15333;50.010;20.020;2023-03-11T16:01:23;26.52;;;13.73;;
28007;SDS011;15333;50.010;20.020;2023-03-11T16:04:28;23.88;;;13.45;;
28007;SDS011;15333;50.010;20.020;2023-03-11T16:07:28;23.20;;;13.35;;
28007;SDS011;15333;50.010;20.020;2023-03-11T16:10:29;24.58;;;12.82;;
28007;SDS011;15333;50.010;20.020;2023-03-11T16:13:30;23.70;;;13.55;;
28007;SDS011;15333;50.010;20.020;2023-03-11T16:16:31;20.98;;;12.50;;
28007;SDS011;15333;50.010;20.020;2023-03-11T16:19:32;23.98;;;14.15;;
28007;SDS011;15333;50.010;20.020;2023-03-11T16:22:33;25.42;;;14.20;;
28007;SDS011;15333;50.010;20.020;2023-03-11T16:25:37;26.52;;;14.55;;
28007;SDS011;15333;50.010;20.020;2023-03-11T16:28:39;21.33;;;12.45;;
28007;SDS011;15333;50.010;20.020;2023-03-11T16:31:40;24.80;;;14.82;;
28007;SDS011;15333;50.010;20.020;2023-03-11T16:34:41;26.63;;;13.80;;
28007;SDS011;15333;50.010;20.020;2023-03-11T16:37:42;26.00;;;15.13;;
28007;SDS011;15333;50.010;20.020;2023-03-11T16:40:44;26.60;;;15.52;;
28007;SDS011;15333;50.010;20.020;2023-03-11T16:43:44;29.13;;;16.25;;
28007;SDS011;15333;50.010;20.020;2023-03-11T16:46:46;28.55;;;16.77;;
28007;SDS011;15333;50.010;20.020;2023-03-11T16:49:47;28.52;;;16.33;;
28007;SDS011;15333;50.010;20.020;2023-03-11T16:52:53;32.67;;;17.98;;
28007;SDS011;15333;50.010;20.020;2023-03-11T16:55:54;29.30;;;17.13;;
28007;SDS011;15333;50.010;20.020;2023-03-11T16:58:55;32.28;;;18.52;;
28007;SDS011;15333;50.010;20.020;2023-03-11T17:01:56;33.63;;;18.63;;
28007;SDS011;15333;50.010;20.020;2023-03-11T17:04:58;33.08;;;18.52;;
28007;SDS011;15333;50.010;20.020;2023-03-11T17:07:59;31.35;;;18.13;;
28007;SDS011;15333;50.010;20.020;2023-03-11T17:11:03;31.33;;;18.88;;
28007;SDS011;15333;50.010;20.020;2023-03-11T17:14:04;34.95;;;18.25;;
28007;SDS011;15333;50.010;20.020;2023-03-11T17:17:05;31.70;;;18.33;;
28007;SDS011;15333;50.010;20.020;2023-03-11T17:20:07;31.48;;;16.65;;
28007;SDS011;15333;50.010;20.020;2023-03-11T17:23:09;25.05;;;14.50;;
28007;SDS011;15333;50.010;20.020;2023-03-11T17:26:14;27.20;;;16.50;;
28007;SDS011;15333;50.010;20.020;2023-03-11T17:29:16;24.60;;;14.85;;
28007;SDS011;15333;50.010;20.020;2023-03-11T17:32:18;27.50;;;14.63;;
28007;SDS011;15333;50.010;20.020;2023-03-11T17:35:21;25.45;;;14.02;;
28007;SDS011;15333;50.010;20.020;2023-03-11T17:38:21;22.63;;;12.98;;
28007;SDS011;15333;50.010;20.020;2023-03-11T17:41:22;18.27;;;10.63;;
28007;SDS011;15333;50.010;20.020;2023-03-11T17:44:23;20.02;;;11.13;;
28007;SDS011;15333;50.010;20.020;2023-03-11T17:47:25;18.98;;;11.02;;
28007;SDS011;15333;50.010;20.020;2023-03-11T17:50:25;17.48;;;10.55;;
28007;SDS011;15333;50.010;20.020;2023-03-11T17:53:26;18.10;;;10.18;;
28007;SDS011;15333;50.010;20.020;2023-03-11T17:57:26;17.45;;;11.00;;
28007;SDS011;15333;50.010;20.020;2023-03-11T18:01:26;18.83;;;10.95;;
28007;SDS011;15333;50.010;20.020;2023-03-11T18:05:26;18.23;;;10.50;;
28007;SDS011;15333;50.010;20.020;2023-03-11T18:08:27;20.55;;;11.63;;
28007;SDS011;15333;50.010;20.020;2023-03-11T18:11:29;19.20;;;10.75;;
28007;SDS011;15333;50.010;20.020;2023-03-11T18:14:30;16.10;;;9.15;;
28007;SDS011;15333;50.010;20.020;2023-03-11T18:17:32;13.85;;;7.18;;
28007;SDS011;15333;50.010;20.020;2023-03-11T18:20:37;11.02;;;6.55;;
28007;SDS011;15333;50.010;20.020;2023-03-11T18:23:39;11.23;;;6.43;;
28007;SDS011;15333;50.010;20.020;2023-03-11T18:26:41;12.43;;;5.95;;
28007;SDS011;15333;50.010;20.020;2023-03-11T18:29:42;11.27;;;5.32;;
28007;SDS011;15333;50.010;20.020;2023-03-11T18:32:43;6.88;;;3.67;;
28007;SDS011;15333;50.010;20.020;2023-03-11T18:35:44;8.93;;;5.10;;
28007;SDS011;15333;50.010;20.020;2023-03-11T18:38:45;9.75;;;5.15;;
28007;SDS011;15333;50.010;20.020;2023-03-11T18:41:47;9.15;;;4.88;;
28007;SDS011;15333;50.010;20.020;2023-03-11T18:44:48;9.85;;;5.18;;
28007;SDS011;15333;50.010;20.020;2023-03-11T18:47:49;10.73;;;5.25;;
28007;SDS011;15333;50.010;20.020;2023-03-11T18:50:50;8.88;;;5.18;;
28007;SDS011;15333;50.010;20.020;2023-03-11T18:53:52;10.48;;;6.43;;
28007;SDS011;15333;50.010;20.020;2023-03-11T18:56:53;11.18;;;6.53;;
28007;SDS011;15333;50.010;20.020;2023-03-11T18:59:54;17.23;;;6.80;;
28007;SDS011;15333;50.010;20.020;2023-03-11T19:02:55;18.15;;;7.72;;
28007;SDS011;15333;50.010;20.020;2023-03-11T19:05:56;14.20;;;8.30;;
28007;SDS011;15333;50.010;20.020;2023-03-11T19:08:57;18.08;;;8.68;;
28007;SDS011;15333;50.010;20.020;2023-03-11T19:11:58;16.02;;;8.57;;
28007;SDS011;15333;50.010;20.020;2023-03-11T19:14:59;20.33;;;9.02;;
28007;SDS011;15333;50.010;20.020;2023-03-11T19:18:00;17.60;;;8.50;;
28007;SDS011;15333;50.010;20.020;2023-03-11T19:21:02;17.42;;;10.00;;
28007;SDS011;15333;50.010;20.020;2023-03-11T19:24:04;20.15;;;10.98;;
28007;SDS011;15333;50.010;20.020;2023-03-11T19:27:05;20.58;;;10.63;;
28007;SDS011;15333;50.010;20.020;2023-03-11T19:30:06;18.23;;;10.38;;
28007;SDS011;15333;50.010;20.020;2023-03-11T19:33:09;22.58;;;10.90;;
28007;SDS011;15333;50.010;20.020;2023-03-11T19:36:10;21.65;;;11.10;;
28007;SDS011;15333;50.010;20.020;2023-03-11T19:39:12;16.98;;;10.10;;
28007;SDS011;15333;50.010;20.020;2023-03-11T19:42:13;23.23;;;10.88;;
28007;SDS011;15333;50.010;20.020;2023-03-11T19:45:14;17.30;;;8.73;;